sensor_id;sensor_type;location;lat;lon;timestamp;P1;P2;P0
31330;PMS5003;34067;39.548;-76.088;2022-09-27T00:00:41;2;2;
31330;PMS5003;34067;39.548;-76.088;2022-09-27T00:03:09;3;3;
31330;PMS5003;34067;39.548;-76.088;2022-09-27T00:05:38;3;3;
31330;PMS5003;34067;39.548;-76.088;2022-09-27T00:08:06;2;2;
31330;PMS5003;34067;39.548;-76.088;2022-09-27T00:10:34;2;2;
31330;PMS5003;34067;39.548;-76.088;2022-09-27T00:13:02;2;2;
31330;PMS5003;34067;39.548;-76.088;2022-09-27T00:15:30;4;4;
31330;PMS5003;34067;39.548;-76.088;2022-09-27T00:17:58;2;2;
31330;PMS5003;34067;39.548;-76.088;2022-09-27T00:20:26;2;2;
31330;PMS5003;34067;39.548;-76.088;2022-09-27T00:22:54;3;2;
31330;PMS5003;34067;39.548;-76.088;2022-09-27T00:25:21;3;2;
31330;PMS5003;34067;39.548;-76.088;2022-09-27T00:27:49;2;2;
31330;PMS5003;34067;39.548;-76.088;2022-09-27T00:30:17;3;3;
31330;PMS5003;34067;39.548;-76.088;2022-09-27T00:32:45;3;3;
31330;PMS5003;34067;39.548;-76.088;2022-09-27T00:35:13;4;3;
31330;PMS5003;34067;39.548;-76.088;2022-09-27T00:37:41;2;2;
31330;PMS5003;34067;39.548;-76.088;2022-09-27T00:40:09;3;3;
31330;PMS5003;34067;39.548;-76.088;2022-09-27T00:42:37;3;3;
31330;PMS5003;34067;39.548;-76.088;2022-09-27T00:45:06;1;1;
31330;PMS5003;34067;39.548;-76.088;2022-09-27T00:47:41;2;2;
31330;PMS5003;34067;39.548;-76.088;2022-09-27T00:50:20;3;2;
31330;PMS5003;34067;39.548;-76.088;2022-09-27T00:52:54;3;3;
31330;PMS5003;34067;39.548;-76.088;2022-09-27T00:55:31;2;2;
31330;PMS5003;34067;39.548;-76.088;2022-09-27T00:58:05;4;4;
31330;PMS5003;34067;39.548;-76.088;2022-09-27T01:00:35;3;3;
31330;PMS5003;34067;39.548;-76.088;2022-09-27T01:03:04;3;3;
31330;PMS5003;34067;39.548;-76.088;2022-09-27T01:05:35;3;3;
31330;PMS5003;34067;39.548;-76.088;2022-09-27T01:08:03;3;3;
31330;PMS5003;34067;39.548;-76.088;2022-09-27T01:10:34;1;1;
31330;PMS5003;34067;39.548;-76.088;2022-09-27T01:13:08;2;2;
31330;PMS5003;34067;39.548;-76.088;2022-09-27T01:15:46;2;2;
31330;PMS5003;34067;39.548;-76.088;2022-09-27T01:18:27;2;2;
31330;PMS5003;34067;39.548;-76.088;2022-09-27T01:21:05;2;2;
31330;PMS5003;34067;39.548;-76.088;2022-09-27T01:24:01;2;2;
31330;PMS5003;34067;39.548;-76.088;2022-09-27T01:26:47;2;1;
31330;PMS5003;34067;39.548;-76.088;2022-09-27T01:29:38;3;3;
31330;PMS5003;34067;39.548;-76.088;2022-09-27T01:32:22;1;1;
31330;PMS5003;34067;39.548;-76.088;2022-09-27T01:34:59;3;3;
31330;PMS5003;34067;39.548;-76.088;2022-09-27T01:37:33;1;1;
31330;PMS5003;34067;39.548;-76.088;2022-09-27T01:40:09;3;3;
31330;PMS5003;34067;39.548;-76.088;2022-09-27T01:42:44;3;3;
31330;PMS5003;34067;39.548;-76.088;2022-09-27T01:45:17;4;4;
31330;PMS5003;34067;39.548;-76.088;2022-09-27T01:47:52;3;3;
31330;PMS5003;34067;39.548;-76.088;2022-09-27T01:50:26;2;2;
31330;PMS5003;34067;39.548;-76.088;2022-09-27T01:53:01;3;3;
31330;PMS5003;34067;39.548;-76.088;2022-09-27T01:55:36;3;3;
31330;PMS5003;34067;39.548;-76.088;2022-09-27T01:58:07;2;2;
31330;PMS5003;34067;39.548;-76.088;2022-09-27T02:00:41;1;1;
31330;PMS5003;34067;39.548;-76.088;2022-09-27T02:03:14;3;3;
31330;PMS5003;34067;39.548;-76.088;2022-09-27T02:05:47;3;3;
31330;PMS5003;34067;39.548;-76.088;2022-09-27T02:08:20;2;2;
31330;PMS5003;34067;39.548;-76.088;2022-09-27T02:10:54;1;1;
31330;PMS5003;34067;39.548;-76.088;2022-09-27T02:13:26;2;2;
31330;PMS5003;34067;39.548;-76.088;2022-09-27T02:16:04;2;2;
31330;PMS5003;34067;39.548;-76.088;2022-09-27T02:18:46;3;3;
31330;PMS5003;34067;39.548;-76.088;2022-09-27T02:21:20;4;3;
31330;PMS5003;34067;39.548;-76.088;2022-09-27T02:23:57;3;3;
31330;PMS5003;34067;39.548;-76.088;2022-09-27T02:26:31;2;2;
31330;PMS5003;34067;39.548;-76.088;2022-09-27T02:29:05;2;2;
31330;PMS5003;34067;39.548;-76.088;2022-09-27T02:31:36;3;3;
31330;PMS5003;34067;39.548;-76.088;2022-09-27T02:34:06;3;3;
31330;PMS5003;34067;39.548;-76.088;2022-09-27T02:36:37;3;2;
31330;PMS5003;34067;39.548;-76.088;2022-09-27T02:39:06;3;2;
31330;PMS5003;34067;39.548;-76.088;2022-09-27T02:41:34;2;2;
31330;PMS5003;34067;39.548;-76.088;2022-09-27T02:44:02;3;3;
31330;PMS5003;34067;39.548;-76.088;2022-09-27T02:46:40;2;2;
31330;PMS5003;34067;39.548;-76.088;2022-09-27T02:49:20;3;3;
31330;PMS5003;34067;39.548;-76.088;2022-09-27T02:51:59;1;1;
31330;PMS5003;34067;39.548;-76.088;2022-09-27T02:54:42;2;2;
31330;PMS5003;34067;39.548;-76.088;2022-09-27T02:57:20;2;2;
31330;PMS5003;34067;39.548;-76.088;2022-09-27T02:59:58;3;2;
31330;PMS5003;34067;39.548;-76.088;2022-09-27T03:02:32;2;2;
31330;PMS5003;34067;39.548;-76.088;2022-09-27T03:05:07;4;3;
31330;PMS5003;34067;39.548;-76.088;2022-09-27T03:07:39;2;2;
31330;PMS5003;34067;39.548;-76.088;2022-09-27T03:10:12;3;3;
31330;PMS5003;34067;39.548;-76.088;2022-09-27T03:12:43;2;2;
31330;PMS5003;34067;39.548;-76.088;2022-09-27T03:15:12;3;3;
31330;PMS5003;34067;39.548;-76.088;2022-09-27T03:17:40;1;1;
31330;PMS5003;34067;39.548;-76.088;2022-09-27T03:20:08;2;2;
31330;PMS5003;34067;39.548;-76.088;2022-09-27T03:22:36;2;2;
31330;PMS5003;34067;39.548;-76.088;2022-09-27T03:25:04;1;1;
31330;PMS5003;34067;39.548;-76.088;2022-09-27T03:27:33;0;0;
31330;PMS5003;34067;39.548;-76.088;2022-09-27T03:30:01;2;2;
31330;PMS5003;34067;39.548;-76.088;2022-09-27T03:32:29;1;1;
31330;PMS5003;34067;39.548;-76.088;2022-09-27T03:34:57;3;3;
31330;PMS5003;34067;39.548;-76.088;2022-09-27T03:37:25;1;1;
31330;PMS5003;34067;39.548;-76.088;2022-09-27T03:39:53;2;2;
31330;PMS5003;34067;39.548;-76.088;2022-09-27T03:42:21;1;1;
31330;PMS5003;34067;39.548;-76.088;2022-09-27T03:44:49;2;2;
31330;PMS5003;34067;39.548;-76.088;2022-09-27T03:47:17;2;2;
31330;PMS5003;34067;39.548;-76.088;2022-09-27T03:49:45;2;2;
31330;PMS5003;34067;39.548;-76.088;2022-09-27T03:52:13;1;1;
31330;PMS5003;34067;39.548;-76.088;2022-09-27T03:54:42;2;1;
31330;PMS5003;34067;39.548;-76.088;2022-09-27T03:57:10;2;2;
31330;PMS5003;34067;39.548;-76.088;2022-09-27T03:59:38;1;1;
31330;PMS5003;34067;39.548;-76.088;2022-09-27T04:02:06;2;2;
31330;PMS5003;34067;39.548;-76.088;2022-09-27T04:04:33;2;2;
31330;PMS5003;34067;39.548;-76.088;2022-09-27T04:07:01;2;2;
31330;PMS5003;34067;39.548;-76.088;2022-09-27T04:09:29;3;3;
31330;PMS5003;34067;39.548;-76.088;2022-09-27T04:11:57;3;3;
31330;PMS5003;34067;39.548;-76.088;2022-09-27T04:14:25;2;2;
31330;PMS5003;34067;39.548;-76.088;2022-09-27T04:16:53;4;4;
31330;PMS5003;34067;39.548;-76.088;2022-09-27T04:19:21;3;3;
31330;PMS5003;34067;39.548;-76.088;2022-09-27T04:21:49;5;4;
31330;PMS5003;34067;39.548;-76.088;2022-09-27T04:24:17;8;6;
31330;PMS5003;34067;39.548;-76.088;2022-09-27T04:26:45;4;4;
31330;PMS5003;34067;39.548;-76.088;2022-09-27T04:29:13;8;8;
31330;PMS5003;34067;39.548;-76.088;2022-09-27T04:31:42;6;6;
31330;PMS5003;34067;39.548;-76.088;2022-09-27T04:34:09;21;21;
31330;PMS5003;34067;39.548;-76.088;2022-09-27T04:36:37;8;7;
31330;PMS5003;34067;39.548;-76.088;2022-09-27T04:39:06;17;17;
31330;PMS5003;34067;39.548;-76.088;2022-09-27T04:41:35;27;27;
31330;PMS5003;34067;39.548;-76.088;2022-09-27T04:44:03;11;11;
31330;PMS5003;34067;39.548;-76.088;2022-09-27T04:46:32;38;38;
31330;PMS5003;34067;39.548;-76.088;2022-09-27T04:49:00;16;16;
31330;PMS5003;34067;39.548;-76.088;2022-09-27T04:51:29;6;6;
31330;PMS5003;34067;39.548;-76.088;2022-09-27T04:53:57;25;24;
31330;PMS5003;34067;39.548;-76.088;2022-09-27T04:56:25;14;13;
31330;PMS5003;34067;39.548;-76.088;2022-09-27T04:58:54;46;46;
31330;PMS5003;34067;39.548;-76.088;2022-09-27T05:03:09;31;30;
31330;PMS5003;34067;39.548;-76.088;2022-09-27T05:05:37;7;7;
31330;PMS5003;34067;39.548;-76.088;2022-09-27T05:08:05;6;4;
31330;PMS5003;34067;39.548;-76.088;2022-09-27T05:10:33;6;5;
31330;PMS5003;34067;39.548;-76.088;2022-09-27T05:13:01;3;3;
31330;PMS5003;34067;39.548;-76.088;2022-09-27T05:15:29;5;4;
31330;PMS5003;34067;39.548;-76.088;2022-09-27T05:17:57;4;4;
31330;PMS5003;34067;39.548;-76.088;2022-09-27T05:20:25;5;5;
31330;PMS5003;34067;39.548;-76.088;2022-09-27T05:22:52;5;4;
31330;PMS5003;34067;39.548;-76.088;2022-09-27T05:25:20;3;3;
31330;PMS5003;34067;39.548;-76.088;2022-09-27T05:27:48;3;3;
31330;PMS5003;34067;39.548;-76.088;2022-09-27T05:30:18;2;2;
31330;PMS5003;34067;39.548;-76.088;2022-09-27T05:32:46;4;4;
31330;PMS5003;34067;39.548;-76.088;2022-09-27T05:35:14;4;3;
31330;PMS5003;34067;39.548;-76.088;2022-09-27T05:37:43;5;5;
31330;PMS5003;34067;39.548;-76.088;2022-09-27T05:40:17;5;4;
31330;PMS5003;34067;39.548;-76.088;2022-09-27T05:42:45;2;1;
31330;PMS5003;34067;39.548;-76.088;2022-09-27T05:45:13;5;4;
31330;PMS5003;34067;39.548;-76.088;2022-09-27T05:47:41;4;4;
31330;PMS5003;34067;39.548;-76.088;2022-09-27T05:50:09;4;3;
31330;PMS5003;34067;39.548;-76.088;2022-09-27T05:52:37;4;4;
31330;PMS5003;34067;39.548;-76.088;2022-09-27T05:55:05;4;4;
31330;PMS5003;34067;39.548;-76.088;2022-09-27T05:57:34;4;4;
31330;PMS5003;34067;39.548;-76.088;2022-09-27T06:00:02;3;3;
31330;PMS5003;34067;39.548;-76.088;2022-09-27T06:02:31;4;4;
31330;PMS5003;34067;39.548;-76.088;2022-09-27T06:04:58;4;4;
31330;PMS5003;34067;39.548;-76.088;2022-09-27T06:07:26;4;3;
31330;PMS5003;34067;39.548;-76.088;2022-09-27T06:09:56;3;3;
31330;PMS5003;34067;39.548;-76.088;2022-09-27T06:12:23;4;4;
31330;PMS5003;34067;39.548;-76.088;2022-09-27T06:14:52;3;3;
31330;PMS5003;34067;39.548;-76.088;2022-09-27T06:17:19;3;3;
31330;PMS5003;34067;39.548;-76.088;2022-09-27T06:19:47;5;4;
31330;PMS5003;34067;39.548;-76.088;2022-09-27T06:22:15;4;4;
31330;PMS5003;34067;39.548;-76.088;2022-09-27T06:24:43;4;4;
31330;PMS5003;34067;39.548;-76.088;2022-09-27T06:27:11;2;2;
31330;PMS5003;34067;39.548;-76.088;2022-09-27T06:29:39;5;5;
31330;PMS5003;34067;39.548;-76.088;2022-09-27T06:32:07;3;3;
31330;PMS5003;34067;39.548;-76.088;2022-09-27T06:34:35;4;4;
31330;PMS5003;34067;39.548;-76.088;2022-09-27T06:37:03;5;4;
31330;PMS5003;34067;39.548;-76.088;2022-09-27T06:39:32;3;3;
31330;PMS5003;34067;39.548;-76.088;2022-09-27T06:41:59;4;4;
31330;PMS5003;34067;39.548;-76.088;2022-09-27T06:44:27;4;4;
31330;PMS5003;34067;39.548;-76.088;2022-09-27T06:46:55;6;6;
31330;PMS5003;34067;39.548;-76.088;2022-09-27T06:49:23;5;4;
31330;PMS5003;34067;39.548;-76.088;2022-09-27T06:51:52;6;6;
31330;PMS5003;34067;39.548;-76.088;2022-09-27T06:54:20;6;6;
31330;PMS5003;34067;39.548;-76.088;2022-09-27T06:56:48;7;7;
31330;PMS5003;34067;39.548;-76.088;2022-09-27T06:59:16;5;5;
31330;PMS5003;34067;39.548;-76.088;2022-09-27T07:01:44;6;6;
31330;PMS5003;34067;39.548;-76.088;2022-09-27T07:04:12;6;6;
31330;PMS5003;34067;39.548;-76.088;2022-09-27T07:06:40;5;5;
31330;PMS5003;34067;39.548;-76.088;2022-09-27T07:09:08;6;6;
31330;PMS5003;34067;39.548;-76.088;2022-09-27T07:11:36;6;6;
31330;PMS5003;34067;39.548;-76.088;2022-09-27T07:14:04;7;7;
31330;PMS5003;34067;39.548;-76.088;2022-09-27T07:16:32;7;7;
31330;PMS5003;34067;39.548;-76.088;2022-09-27T07:19:00;5;5;
31330;PMS5003;34067;39.548;-76.088;2022-09-27T07:21:28;5;5;
31330;PMS5003;34067;39.548;-76.088;2022-09-27T07:23:56;3;3;
31330;PMS5003;34067;39.548;-76.088;2022-09-27T07:26:24;6;6;
31330;PMS5003;34067;39.548;-76.088;2022-09-27T07:28:52;6;5;
31330;PMS5003;34067;39.548;-76.088;2022-09-27T07:31:20;5;5;
31330;PMS5003;34067;39.548;-76.088;2022-09-27T07:33:48;5;4;
31330;PMS5003;34067;39.548;-76.088;2022-09-27T07:36:17;3;3;
31330;PMS5003;34067;39.548;-76.088;2022-09-27T07:38:44;6;6;
31330;PMS5003;34067;39.548;-76.088;2022-09-27T07:41:13;5;4;
31330;PMS5003;34067;39.548;-76.088;2022-09-27T07:43:41;4;4;
31330;PMS5003;34067;39.548;-76.088;2022-09-27T07:46:09;7;6;
31330;PMS5003;34067;39.548;-76.088;2022-09-27T07:48:37;6;6;
31330;PMS5003;34067;39.548;-76.088;2022-09-27T07:51:06;5;4;
31330;PMS5003;34067;39.548;-76.088;2022-09-27T07:53:33;6;5;
31330;PMS5003;34067;39.548;-76.088;2022-09-27T07:56:01;6;5;
31330;PMS5003;34067;39.548;-76.088;2022-09-27T07:58:29;6;5;
31330;PMS5003;34067;39.548;-76.088;2022-09-27T08:00:58;5;5;
31330;PMS5003;34067;39.548;-76.088;2022-09-27T08:03:26;4;3;
31330;PMS5003;34067;39.548;-76.088;2022-09-27T08:05:54;4;3;
31330;PMS5003;34067;39.548;-76.088;2022-09-27T08:08:22;4;4;
31330;PMS5003;34067;39.548;-76.088;2022-09-27T08:10:50;4;4;
31330;PMS5003;34067;39.548;-76.088;2022-09-27T08:13:18;3;3;
31330;PMS5003;34067;39.548;-76.088;2022-09-27T08:15:46;4;4;
31330;PMS5003;34067;39.548;-76.088;2022-09-27T08:18:14;3;3;
31330;PMS5003;34067;39.548;-76.088;2022-09-27T08:20:42;3;3;
31330;PMS5003;34067;39.548;-76.088;2022-09-27T08:23:10;4;4;
31330;PMS5003;34067;39.548;-76.088;2022-09-27T08:25:39;4;4;
31330;PMS5003;34067;39.548;-76.088;2022-09-27T08:28:07;6;6;
31330;PMS5003;34067;39.548;-76.088;2022-09-27T08:30:35;4;4;
31330;PMS5003;34067;39.548;-76.088;2022-09-27T08:33:03;4;4;
31330;PMS5003;34067;39.548;-76.088;2022-09-27T08:35:31;5;4;
31330;PMS5003;34067;39.548;-76.088;2022-09-27T08:38:00;3;3;
31330;PMS5003;34067;39.548;-76.088;2022-09-27T08:40:30;3;3;
31330;PMS5003;34067;39.548;-76.088;2022-09-27T08:43:13;3;3;
31330;PMS5003;34067;39.548;-76.088;2022-09-27T08:45:54;4;4;
31330;PMS5003;34067;39.548;-76.088;2022-09-27T08:48:35;2;2;
31330;PMS5003;34067;39.548;-76.088;2022-09-27T08:51:05;4;4;
31330;PMS5003;34067;39.548;-76.088;2022-09-27T08:53:41;2;2;
31330;PMS5003;34067;39.548;-76.088;2022-09-27T08:56:14;3;3;
31330;PMS5003;34067;39.548;-76.088;2022-09-27T08:58:44;3;3;
31330;PMS5003;34067;39.548;-76.088;2022-09-27T09:01:17;2;2;
31330;PMS5003;34067;39.548;-76.088;2022-09-27T09:03:47;4;4;
31330;PMS5003;34067;39.548;-76.088;2022-09-27T09:06:21;4;4;
31330;PMS5003;34067;39.548;-76.088;2022-09-27T09:08:57;5;5;
31330;PMS5003;34067;39.548;-76.088;2022-09-27T09:11:41;5;4;
31330;PMS5003;34067;39.548;-76.088;2022-09-27T09:14:51;3;3;
31330;PMS5003;34067;39.548;-76.088;2022-09-27T09:17:38;5;4;
31330;PMS5003;34067;39.548;-76.088;2022-09-27T09:20:23;3;3;
31330;PMS5003;34067;39.548;-76.088;2022-09-27T09:23:07;4;4;
31330;PMS5003;34067;39.548;-76.088;2022-09-27T09:25:51;3;2;
31330;PMS5003;34067;39.548;-76.088;2022-09-27T09:28:30;4;4;
31330;PMS5003;34067;39.548;-76.088;2022-09-27T09:31:13;4;3;
31330;PMS5003;34067;39.548;-76.088;2022-09-27T09:33:51;4;4;
31330;PMS5003;34067;39.548;-76.088;2022-09-27T09:36:26;4;3;
31330;PMS5003;34067;39.548;-76.088;2022-09-27T09:39:01;4;4;
31330;PMS5003;34067;39.548;-76.088;2022-09-27T09:41:32;3;3;
31330;PMS5003;34067;39.548;-76.088;2022-09-27T09:44:09;3;3;
31330;PMS5003;34067;39.548;-76.088;2022-09-27T09:46:44;8;8;
31330;PMS5003;34067;39.548;-76.088;2022-09-27T09:49:15;10;9;
31330;PMS5003;34067;39.548;-76.088;2022-09-27T09:51:50;11;11;
31330;PMS5003;34067;39.548;-76.088;2022-09-27T09:54:23;11;11;
31330;PMS5003;34067;39.548;-76.088;2022-09-27T09:56:58;17;17;
31330;PMS5003;34067;39.548;-76.088;2022-09-27T09:59:34;14;14;
31330;PMS5003;34067;39.548;-76.088;2022-09-27T10:02:14;18;18;
31330;PMS5003;34067;39.548;-76.088;2022-09-27T10:04:50;19;19;
31330;PMS5003;34067;39.548;-76.088;2022-09-27T10:07:19;21;21;
31330;PMS5003;34067;39.548;-76.088;2022-09-27T10:09:48;38;38;
31330;PMS5003;34067;39.548;-76.088;2022-09-27T10:12:17;66;66;
31330;PMS5003;34067;39.548;-76.088;2022-09-27T10:14:46;53;53;
31330;PMS5003;34067;39.548;-76.088;2022-09-27T10:17:18;5;5;
31330;PMS5003;34067;39.548;-76.088;2022-09-27T10:19:49;5;5;
31330;PMS5003;34067;39.548;-76.088;2022-09-27T10:22:18;4;4;
31330;PMS5003;34067;39.548;-76.088;2022-09-27T10:24:55;4;4;
31330;PMS5003;34067;39.548;-76.088;2022-09-27T10:27:24;3;3;
31330;PMS5003;34067;39.548;-76.088;2022-09-27T10:29:56;4;4;
31330;PMS5003;34067;39.548;-76.088;2022-09-27T10:32:26;5;4;
31330;PMS5003;34067;39.548;-76.088;2022-09-27T10:35:18;6;5;
31330;PMS5003;34067;39.548;-76.088;2022-09-27T10:37:48;5;5;
31330;PMS5003;34067;39.548;-76.088;2022-09-27T10:40:27;5;5;
31330;PMS5003;34067;39.548;-76.088;2022-09-27T10:42:56;5;5;
31330;PMS5003;34067;39.548;-76.088;2022-09-27T10:45:28;5;5;
31330;PMS5003;34067;39.548;-76.088;2022-09-27T10:47:57;5;5;
31330;PMS5003;34067;39.548;-76.088;2022-09-27T10:50:27;5;5;
31330;PMS5003;34067;39.548;-76.088;2022-09-27T10:53:00;4;4;
31330;PMS5003;34067;39.548;-76.088;2022-09-27T10:55:31;5;5;
31330;PMS5003;34067;39.548;-76.088;2022-09-27T10:58:01;5;5;
31330;PMS5003;34067;39.548;-76.088;2022-09-27T11:00:30;7;6;
31330;PMS5003;34067;39.548;-76.088;2022-09-27T11:03:01;4;4;
31330;PMS5003;34067;39.548;-76.088;2022-09-27T11:05:33;4;4;
31330;PMS5003;34067;39.548;-76.088;2022-09-27T11:08:19;5;5;
31330;PMS5003;34067;39.548;-76.088;2022-09-27T11:11:12;4;4;
31330;PMS5003;34067;39.548;-76.088;2022-09-27T11:13:56;5;5;
31330;PMS5003;34067;39.548;-76.088;2022-09-27T11:16:31;6;5;
31330;PMS5003;34067;39.548;-76.088;2022-09-27T11:19:15;6;6;
31330;PMS5003;34067;39.548;-76.088;2022-09-27T11:21:56;3;3;
31330;PMS5003;34067;39.548;-76.088;2022-09-27T11:24:38;4;4;
31330;PMS5003;34067;39.548;-76.088;2022-09-27T11:27:17;3;3;
31330;PMS5003;34067;39.548;-76.088;2022-09-27T11:30:00;6;6;
31330;PMS5003;34067;39.548;-76.088;2022-09-27T11:32:39;3;3;
31330;PMS5003;34067;39.548;-76.088;2022-09-27T11:35:27;5;5;
31330;PMS5003;34067;39.548;-76.088;2022-09-27T11:38:08;4;4;
31330;PMS5003;34067;39.548;-76.088;2022-09-27T11:40:55;5;5;
31330;PMS5003;34067;39.548;-76.088;2022-09-27T11:43:40;5;4;
31330;PMS5003;34067;39.548;-76.088;2022-09-27T11:46:27;5;5;
31330;PMS5003;34067;39.548;-76.088;2022-09-27T11:49:03;4;4;
31330;PMS5003;34067;39.548;-76.088;2022-09-27T11:51:54;4;4;
31330;PMS5003;34067;39.548;-76.088;2022-09-27T11:54:40;4;4;
31330;PMS5003;34067;39.548;-76.088;2022-09-27T11:57:24;6;4;
31330;PMS5003;34067;39.548;-76.088;2022-09-27T12:00:00;4;4;
31330;PMS5003;34067;39.548;-76.088;2022-09-27T12:02:42;3;3;
31330;PMS5003;34067;39.548;-76.088;2022-09-27T12:04:59;3;3;
31330;PMS5003;34067;39.548;-76.088;2022-09-27T12:07:44;3;3;
31330;PMS5003;34067;39.548;-76.088;2022-09-27T12:10:22;4;4;
31330;PMS5003;34067;39.548;-76.088;2022-09-27T12:12:50;3;3;
31330;PMS5003;34067;39.548;-76.088;2022-09-27T12:15:23;3;3;
31330;PMS5003;34067;39.548;-76.088;2022-09-27T12:17:54;3;3;
31330;PMS5003;34067;39.548;-76.088;2022-09-27T12:20:29;5;4;
31330;PMS5003;34067;39.548;-76.088;2022-09-27T12:23:02;4;4;
31330;PMS5003;34067;39.548;-76.088;2022-09-27T12:25:34;3;3;
31330;PMS5003;34067;39.548;-76.088;2022-09-27T12:28:07;3;3;
31330;PMS5003;34067;39.548;-76.088;2022-09-27T12:30:44;3;3;
31330;PMS5003;34067;39.548;-76.088;2022-09-27T12:33:22;4;4;
31330;PMS5003;34067;39.548;-76.088;2022-09-27T12:35:56;4;4;
31330;PMS5003;34067;39.548;-76.088;2022-09-27T12:38:36;1;1;
31330;PMS5003;34067;39.548;-76.088;2022-09-27T12:41:08;4;3;
31330;PMS5003;34067;39.548;-76.088;2022-09-27T12:43:41;3;3;
31330;PMS5003;34067;39.548;-76.088;2022-09-27T12:46:11;4;4;
31330;PMS5003;34067;39.548;-76.088;2022-09-27T12:48:49;2;2;
31330;PMS5003;34067;39.548;-76.088;2022-09-27T12:51:24;4;4;
31330;PMS5003;34067;39.548;-76.088;2022-09-27T12:54:02;3;3;
31330;PMS5003;34067;39.548;-76.088;2022-09-27T12:56:48;3;3;
31330;PMS5003;34067;39.548;-76.088;2022-09-27T13:00:16;1;1;
31330;PMS5003;34067;39.548;-76.088;2022-09-27T13:03:52;3;3;
31330;PMS5003;34067;39.548;-76.088;2022-09-27T13:06:40;3;3;
31330;PMS5003;34067;39.548;-76.088;2022-09-27T13:10:20;3;3;
31330;PMS5003;34067;39.548;-76.088;2022-09-27T13:13:17;2;2;
31330;PMS5003;34067;39.548;-76.088;2022-09-27T13:15:48;3;3;
31330;PMS5003;34067;39.548;-76.088;2022-09-27T13:18:49;3;3;
31330;PMS5003;34067;39.548;-76.088;2022-09-27T13:21:52;2;1;
31330;PMS5003;34067;39.548;-76.088;2022-09-27T13:24:38;3;3;
31330;PMS5003;34067;39.548;-76.088;2022-09-27T13:27:41;5;5;
31330;PMS5003;34067;39.548;-76.088;2022-09-27T13:30:42;5;5;
31330;PMS5003;34067;39.548;-76.088;2022-09-27T13:33:40;2;2;
31330;PMS5003;34067;39.548;-76.088;2022-09-27T13:36:17;4;3;
31330;PMS5003;34067;39.548;-76.088;2022-09-27T13:39:04;1;1;
31330;PMS5003;34067;39.548;-76.088;2022-09-27T13:41:54;3;3;
31330;PMS5003;34067;39.548;-76.088;2022-09-27T13:44:38;2;2;
31330;PMS5003;34067;39.548;-76.088;2022-09-27T13:47:22;3;3;
31330;PMS5003;34067;39.548;-76.088;2022-09-27T13:49:57;2;2;
31330;PMS5003;34067;39.548;-76.088;2022-09-27T13:52:40;0;0;
31330;PMS5003;34067;39.548;-76.088;2022-09-27T13:55:37;2;2;
31330;PMS5003;34067;39.548;-76.088;2022-09-27T13:58:12;27;27;
31330;PMS5003;34067;39.548;-76.088;2022-09-27T14:00:51;9;9;
31330;PMS5003;34067;39.548;-76.088;2022-09-27T14:03:25;37;36;
31330;PMS5003;34067;39.548;-76.088;2022-09-27T14:05:59;21;21;
31330;PMS5003;34067;39.548;-76.088;2022-09-27T14:08:30;3;2;
31330;PMS5003;34067;39.548;-76.088;2022-09-27T14:11:00;5;4;
31330;PMS5003;34067;39.548;-76.088;2022-09-27T14:13:31;5;5;
31330;PMS5003;34067;39.548;-76.088;2022-09-27T14:16:01;4;4;
31330;PMS5003;34067;39.548;-76.088;2022-09-27T14:18:31;3;3;
31330;PMS5003;34067;39.548;-76.088;2022-09-27T14:21:08;2;2;
31330;PMS5003;34067;39.548;-76.088;2022-09-27T14:23:43;1;1;
31330;PMS5003;34067;39.548;-76.088;2022-09-27T14:26:19;2;2;
31330;PMS5003;34067;39.548;-76.088;2022-09-27T14:28:49;3;3;
31330;PMS5003;34067;39.548;-76.088;2022-09-27T14:31:18;4;4;
31330;PMS5003;34067;39.548;-76.088;2022-09-27T14:33:50;4;4;
31330;PMS5003;34067;39.548;-76.088;2022-09-27T14:36:31;4;4;
31330;PMS5003;34067;39.548;-76.088;2022-09-27T14:39:00;6;6;
31330;PMS5003;34067;39.548;-76.088;2022-09-27T14:41:34;5;5;
31330;PMS5003;34067;39.548;-76.088;2022-09-27T14:44:01;3;3;
31330;PMS5003;34067;39.548;-76.088;2022-09-27T14:46:30;3;3;
31330;PMS5003;34067;39.548;-76.088;2022-09-27T14:49:08;2;2;
31330;PMS5003;34067;39.548;-76.088;2022-09-27T14:51:49;2;2;
31330;PMS5003;34067;39.548;-76.088;2022-09-27T14:54:19;2;1;
31330;PMS5003;34067;39.548;-76.088;2022-09-27T14:56:48;0;0;
31330;PMS5003;34067;39.548;-76.088;2022-09-27T14:59:22;3;2;
31330;PMS5003;34067;39.548;-76.088;2022-09-27T15:01:52;2;2;
31330;PMS5003;34067;39.548;-76.088;2022-09-27T15:04:20;2;2;
31330;PMS5003;34067;39.548;-76.088;2022-09-27T15:06:49;2;2;
31330;PMS5003;34067;39.548;-76.088;2022-09-27T15:09:18;2;2;
31330;PMS5003;34067;39.548;-76.088;2022-09-27T15:11:48;2;2;
31330;PMS5003;34067;39.548;-76.088;2022-09-27T15:14:19;2;2;
31330;PMS5003;34067;39.548;-76.088;2022-09-27T15:16:48;2;2;
31330;PMS5003;34067;39.548;-76.088;2022-09-27T15:19:21;3;3;
31330;PMS5003;34067;39.548;-76.088;2022-09-27T15:21:51;3;3;
31330;PMS5003;34067;39.548;-76.088;2022-09-27T15:24:36;3;3;
31330;PMS5003;34067;39.548;-76.088;2022-09-27T15:27:12;2;1;
31330;PMS5003;34067;39.548;-76.088;2022-09-27T15:29:46;2;2;
31330;PMS5003;34067;39.548;-76.088;2022-09-27T15:32:16;2;2;
31330;PMS5003;34067;39.548;-76.088;2022-09-27T15:34:47;3;3;
31330;PMS5003;34067;39.548;-76.088;2022-09-27T15:37:23;2;2;
31330;PMS5003;34067;39.548;-76.088;2022-09-27T15:39:53;1;1;
31330;PMS5003;34067;39.548;-76.088;2022-09-27T15:42:23;1;1;
31330;PMS5003;34067;39.548;-76.088;2022-09-27T15:44:52;2;2;
31330;PMS5003;34067;39.548;-76.088;2022-09-27T15:47:53;3;3;
31330;PMS5003;34067;39.548;-76.088;2022-09-27T15:50:48;3;3;
31330;PMS5003;34067;39.548;-76.088;2022-09-27T15:53:38;4;3;
31330;PMS5003;34067;39.548;-76.088;2022-09-27T15:56:10;2;2;
31330;PMS5003;34067;39.548;-76.088;2022-09-27T15:58:40;2;2;
31330;PMS5003;34067;39.548;-76.088;2022-09-27T16:01:14;2;2;
31330;PMS5003;34067;39.548;-76.088;2022-09-27T16:03:45;3;3;
31330;PMS5003;34067;39.548;-76.088;2022-09-27T16:06:14;4;3;
31330;PMS5003;34067;39.548;-76.088;2022-09-27T16:08:43;3;3;
31330;PMS5003;34067;39.548;-76.088;2022-09-27T16:11:13;2;2;
31330;PMS5003;34067;39.548;-76.088;2022-09-27T16:13:41;3;3;
31330;PMS5003;34067;39.548;-76.088;2022-09-27T16:16:13;1;1;
31330;PMS5003;34067;39.548;-76.088;2022-09-27T16:18:43;2;2;
31330;PMS5003;34067;39.548;-76.088;2022-09-27T16:21:12;2;2;
31330;PMS5003;34067;39.548;-76.088;2022-09-27T16:23:40;4;3;
31330;PMS5003;34067;39.548;-76.088;2022-09-27T16:26:08;3;3;
31330;PMS5003;34067;39.548;-76.088;2022-09-27T16:28:36;3;3;
31330;PMS5003;34067;39.548;-76.088;2022-09-27T16:31:05;1;1;
31330;PMS5003;34067;39.548;-76.088;2022-09-27T16:33:33;3;3;
31330;PMS5003;34067;39.548;-76.088;2022-09-27T16:36:04;3;3;
31330;PMS5003;34067;39.548;-76.088;2022-09-27T16:38:33;3;3;
31330;PMS5003;34067;39.548;-76.088;2022-09-27T16:41:01;2;2;
31330;PMS5003;34067;39.548;-76.088;2022-09-27T16:43:29;2;1;
31330;PMS5003;34067;39.548;-76.088;2022-09-27T16:46:02;3;3;
31330;PMS5003;34067;39.548;-76.088;2022-09-27T16:48:31;3;3;
31330;PMS5003;34067;39.548;-76.088;2022-09-27T16:51:04;2;2;
31330;PMS5003;34067;39.548;-76.088;2022-09-27T16:53:32;3;3;
31330;PMS5003;34067;39.548;-76.088;2022-09-27T16:56:01;2;2;
31330;PMS5003;34067;39.548;-76.088;2022-09-27T16:58:28;2;2;